Time;durP1;ratioP1;P1;durP2;ratioP2;P2;SDS_P1;SDS_P2;PMS_P1;PMS_P2;Temp;Humidity;BMP_temperature;BMP_pressure;BME280_temperature;BME280_humidity;BME280_pressure;Samples;Min_cycle;Max_cycle;Signal;HPM_P1;HPM_P2
2024/04/18 00:00:37;;;;;;;8.60;8.10;;;4.80;99.90;;;;;;5253800;27;20294;-80
2024/04/18 00:03:06;;;;;;;8.77;8.20;;;4.80;99.90;;;;;;5270188;27;20606;-80
2024/04/18 00:05:33;;;;;;;8.40;7.90;;;4.80;99.90;;;;;;5283018;27;20615;-80
2024/04/18 00:08:01;;;;;;;8.00;7.60;;;4.80;99.90;;;;;;5257078;27;20243;-81
2024/04/18 00:10:27;;;;;;;8.20;7.70;;;4.80;99.90;;;;;;5253206;27;20696;-81
2024/04/18 00:12:58;;;;;;;8.83;8.33;;;4.80;99.90;;;;;;5275857;27;20250;-81
2024/04/18 00:15:24;;;;;;;8.60;8.00;;;4.80;99.90;;;;;;5255916;27;20248;-80
2024/04/18 00:17:59;;;;;;;8.90;8.27;;;4.80;99.90;;;;;;5296418;27;20364;-80
2024/04/18 00:20:25;;;;;;;8.77;8.27;;;4.70;99.90;;;;;;5288830;27;20249;-80
2024/04/18 00:22:55;;;;;;;9.50;8.73;;;4.70;99.90;;;;;;5262030;27;20301;-80
2024/04/18 00:25:31;;;;;;;8.87;8.37;;;4.80;99.90;;;;;;5269433;27;20281;-79
2024/04/18 00:28:02;;;;;;;8.90;8.30;;;4.70;99.90;;;;;;5258774;27;20341;-80
2024/04/18 00:30:38;;;;;;;8.83;8.23;;;4.70;99.90;;;;;;5275947;27;20247;-80
2024/04/18 00:33:07;;;;;;;8.93;8.33;;;4.70;99.90;;;;;;5288927;27;20247;-80
2024/04/18 00:35:41;;;;;;;8.63;8.13;;;4.70;99.90;;;;;;5267338;27;20271;-81
2024/04/18 00:38:10;;;;;;;8.90;8.40;;;4.70;99.90;;;;;;5262027;27;20288;-81
2024/04/18 00:40:45;;;;;;;9.03;8.53;;;4.70;99.90;;;;;;5272100;27;20283;-80
2024/04/18 00:43:20;;;;;;;8.50;8.00;;;4.70;99.90;;;;;;5289562;27;20763;-81
2024/04/18 00:45:53;;;;;;;8.70;8.20;;;4.60;99.90;;;;;;5264932;27;20569;-80
2024/04/18 00:48:19;;;;;;;8.93;8.33;;;4.60;99.90;;;;;;5270554;27;20346;-82
2024/04/18 00:50:48;;;;;;;8.93;8.43;;;4.60;99.90;;;;;;5243243;27;20736;-81
2024/04/18 00:53:21;;;;;;;8.70;8.20;;;4.60;99.90;;;;;;5264727;27;20249;-80
2024/04/18 00:55:53;;;;;;;9.20;8.60;;;4.60;99.90;;;;;;5278694;27;20277;-81
2024/04/18 00:58:42;;;;;;;9.00;8.50;;;4.50;99.90;;;;;;5263481;27;20245;-80
2024/04/18 01:01:25;;;;;;;8.90;8.40;;;4.60;99.90;;;;;;5262472;27;20793;-80
2024/04/18 01:03:55;;;;;;;8.80;8.30;;;4.60;99.90;;;;;;5245348;27;20347;-81
2024/04/18 01:06:40;;;;;;;9.20;8.60;;;4.50;99.90;;;;;;5270389;27;20233;-81
2024/04/18 01:09:13;;;;;;;9.30;8.70;;;4.50;99.90;;;;;;5263635;27;20585;-80
2024/04/18 01:12:02;;;;;;;9.43;8.83;;;4.60;99.90;;;;;;5272683;27;20241;-80
2024/04/18 01:14:30;;;;;;;9.40;8.80;;;4.50;99.90;;;;;;5283556;27;20768;-81
2024/04/18 01:17:03;;;;;;;8.93;8.43;;;4.50;99.90;;;;;;5264937;27;20264;-80
2024/04/18 01:19:29;;;;;;;9.37;8.77;;;4.50;99.90;;;;;;5303395;27;20241;-80
2024/04/18 01:21:58;;;;;;;8.80;8.30;;;4.40;99.90;;;;;;5255092;27;20309;-80
2024/04/18 01:24:24;;;;;;;8.90;8.40;;;4.40;99.90;;;;;;5270864;27;20258;-81
2024/04/18 01:26:55;;;;;;;8.93;8.43;;;4.40;99.90;;;;;;5249330;27;20242;-81
2024/04/18 01:29:40;;;;;;;8.87;8.23;;;4.40;99.90;;;;;;5273605;27;20245;-81
2024/04/18 01:32:09;;;;;;;9.00;8.30;;;4.40;99.90;;;;;;5277762;27;20651;-80
2024/04/18 01:34:35;;;;;;;9.13;8.53;;;4.40;99.90;;;;;;5278086;27;20637;-80
2024/04/18 01:37:19;;;;;;;8.90;8.40;;;4.50;99.90;;;;;;5276965;27;20823;-81
2024/04/18 01:39:44;;;;;;;8.93;8.33;;;4.50;99.90;;;;;;5278579;27;20283;-81
2024/04/18 01:42:15;;;;;;;9.50;8.80;;;4.60;99.90;;;;;;5267357;27;20242;-80
2024/04/18 01:44:41;;;;;;;9.30;8.70;;;4.60;99.90;;;;;;5259055;27;20242;-81
2024/04/18 01:47:29;;;;;;;9.00;8.50;;;4.60;99.90;;;;;;5275583;27;20276;-81
2024/04/18 01:50:10;;;;;;;9.50;8.90;;;4.60;99.90;;;;;;5275775;27;20604;-81
2024/04/18 01:52:36;;;;;;;9.50;8.90;;;4.50;99.90;;;;;;5269916;27;20398;-81
2024/04/18 01:55:05;;;;;;;9.57;8.97;;;4.60;99.90;;;;;;5270635;27;20313;-80
2024/04/18 01:57:40;;;;;;;9.13;8.60;;;4.60;99.90;;;;;;5263243;27;20253;-82
2024/04/18 02:00:28;;;;;;;9.30;8.70;;;4.50;99.90;;;;;;5258406;27;20279;-81
2024/04/18 02:02:53;;;;;;;8.60;8.10;;;4.60;99.90;;;;;;5255736;27;20239;-82
2024/04/18 02:05:41;;;;;;;8.80;8.20;;;4.60;99.90;;;;;;5262025;27;20270;-81
2024/04/18 02:08:12;;;;;;;8.83;8.23;;;4.60;99.90;;;;;;5250297;27;20277;-81
2024/04/18 02:10:47;;;;;;;9.33;8.67;;;4.60;99.90;;;;;;5261651;27;20245;-81
2024/04/18 02:13:41;;;;;;;9.60;9.00;;;4.60;99.90;;;;;;5275247;27;20272;-80
2024/04/18 02:16:09;;;;;;;9.27;8.53;;;4.60;99.90;;;;;;5255589;27;20295;-80
2024/04/18 02:18:54;;;;;;;8.97;8.37;;;4.70;99.90;;;;;;5277004;27;20342;-81
2024/04/18 02:21:22;;;;;;;9.13;8.53;;;4.60;99.90;;;;;;5260099;27;20293;-80
2024/04/18 02:27:53;;;;;;;9.10;8.60;;;4.70;99.90;;;;;;5261251;27;20406;-80
2024/04/18 02:30:25;;;;;;;9.50;8.90;;;4.70;99.90;;;;;;5271209;27;20270;-82
2024/04/18 02:33:11;;;;;;;9.07;8.57;;;4.70;99.90;;;;;;5267733;27;20754;-81
2024/04/18 02:35:46;;;;;;;9.30;8.73;;;4.70;99.90;;;;;;5261144;27;20250;-81
2024/04/18 02:38:33;;;;;;;9.07;8.57;;;4.70;99.90;;;;;;5271914;27;20249;-81
2024/04/18 02:41:03;;;;;;;9.00;8.40;;;4.80;99.90;;;;;;5265405;27;20242;-83
2024/04/18 02:43:50;;;;;;;9.27;8.67;;;4.80;99.90;;;;;;5272095;27;20301;-79
2024/04/18 02:46:18;;;;;;;9.10;8.60;;;4.70;99.90;;;;;;5277073;27;20780;-80
2024/04/18 02:49:06;;;;;;;9.30;8.70;;;4.70;99.90;;;;;;5273109;27;20343;-80
2024/04/18 02:51:31;;;;;;;9.30;8.80;;;4.70;99.90;;;;;;5278888;27;20244;-81
2024/04/18 02:54:15;;;;;;;9.27;8.67;;;4.70;99.90;;;;;;5273725;27;20277;-83
2024/04/18 02:56:41;;;;;;;9.50;8.90;;;4.70;99.90;;;;;;5278694;27;20247;-82
2024/04/18 02:59:13;;;;;;;8.90;8.40;;;4.80;99.90;;;;;;5277843;27;20366;-82
2024/04/18 03:01:51;;;;;;;9.70;9.10;;;4.80;99.90;;;;;;5281137;27;20280;-83
2024/04/18 03:04:19;;;;;;;9.70;9.10;;;4.80;99.90;;;;;;5293161;26;20644;-82
2024/04/18 03:06:46;;;;;;;9.57;8.97;;;4.70;99.90;;;;;;5280975;27;20245;-82
2024/04/18 03:09:14;;;;;;;9.30;8.80;;;4.80;99.90;;;;;;5278147;27;20602;-82
2024/04/18 03:11:52;;;;;;;9.80;9.17;;;4.80;99.90;;;;;;5280871;27;20295;-82
2024/04/18 03:14:40;;;;;;;10.00;9.40;;;4.70;99.90;;;;;;5276478;27;20570;-83
2024/04/18 03:17:08;;;;;;;10.13;9.43;;;4.70;99.90;;;;;;5302018;27;20251;-80
2024/04/18 03:19:55;;;;;;;10.23;9.53;;;4.80;99.90;;;;;;5282733;27;20281;-82
2024/04/18 03:22:24;;;;;;;10.13;9.47;;;4.80;99.90;;;;;;5277946;27;20284;-81
2024/04/18 03:25:02;;;;;;;10.10;9.40;;;4.70;99.90;;;;;;5284567;27;20308;-81
2024/04/18 03:27:29;;;;;;;10.37;9.67;;;4.80;99.90;;;;;;5280292;27;20285;-82
2024/04/18 03:29:57;;;;;;;10.50;9.80;;;4.70;99.90;;;;;;5281092;27;20242;-82
2024/04/18 03:32:35;;;;;;;10.00;9.30;;;4.70;99.90;;;;;;5281722;27;20292;-81
2024/04/18 03:35:03;;;;;;;9.77;9.07;;;4.70;99.90;;;;;;5281758;27;20249;-83
2024/04/18 03:37:32;;;;;;;10.40;9.70;;;4.70;99.90;;;;;;5270683;27;20254;-79
2024/04/18 03:40:20;;;;;;;10.63;9.93;;;4.70;99.90;;;;;;5261834;27;20242;-81
2024/04/18 03:43:02;;;;;;;9.97;9.27;;;4.70;99.90;;;;;;5269406;27;20277;-78
2024/04/18 03:45:31;;;;;;;9.77;9.10;;;4.60;99.90;;;;;;5263580;27;20281;-78
2024/04/18 03:48:25;;;;;;;10.07;9.37;;;4.70;99.90;;;;;;5268451;27;20258;-78
2024/04/18 03:50:51;;;;;;;9.90;9.20;;;4.60;99.90;;;;;;5275431;27;20236;-79
2024/04/18 03:53:22;;;;;;;9.57;8.97;;;4.60;99.90;;;;;;5276744;27;20345;-79
2024/04/18 03:56:09;;;;;;;10.60;9.90;;;4.60;99.90;;;;;;5278267;27;20279;-79
2024/04/18 03:58:35;;;;;;;11.10;10.40;;;4.60;99.90;;;;;;5280711;27;20253;-79
2024/04/18 04:01:03;;;;;;;11.80;11.00;;;4.60;99.90;;;;;;5262494;27;20310;-79
2024/04/18 04:03:32;;;;;;;11.37;10.67;;;4.60;99.90;;;;;;5262725;27;20581;-79
2024/04/18 04:06:00;;;;;;;11.73;10.93;;;4.70;99.90;;;;;;5270233;27;20238;-79
2024/04/18 04:08:26;;;;;;;10.93;10.23;;;4.70;99.90;;;;;;5275951;27;20288;-79
2024/04/18 04:11:13;;;;;;;10.47;9.87;;;4.70;99.90;;;;;;5262512;27;20644;-79
2024/04/18 04:13:39;;;;;;;10.97;10.17;;;4.60;99.90;;;;;;5274069;27;20285;-79
2024/04/18 04:16:18;;;;;;;10.90;10.23;;;4.60;99.90;;;;;;5278165;27;20300;-79
2024/04/18 04:18:50;;;;;;;11.77;11.00;;;4.60;99.90;;;;;;5270489;27;20294;-79
2024/04/18 04:21:19;;;;;;;12.17;11.37;;;4.60;99.90;;;;;;5269504;27;20268;-79
2024/04/18 04:23:45;;;;;;;11.20;10.50;;;4.60;99.90;;;;;;5264469;27;20285;-79
2024/04/18 04:26:13;;;;;;;11.27;10.60;;;4.50;99.90;;;;;;5278214;27;20241;-79
2024/04/18 04:28:39;;;;;;;11.37;10.67;;;4.60;99.90;;;;;;5275462;27;20325;-79
2024/04/18 04:31:07;;;;;;;11.43;10.63;;;4.60;99.90;;;;;;5271630;27;20251;-79
2024/04/18 04:33:33;;;;;;;11.73;10.83;;;4.60;99.90;;;;;;5278177;27;20240;-79
2024/04/18 04:36:04;;;;;;;11.23;10.53;;;4.60;99.90;;;;;;5275587;27;20663;-79
2024/04/18 04:38:30;;;;;;;10.87;10.17;;;4.60;99.90;;;;;;5290872;21;20271;-77
2024/04/18 04:40:59;;;;;;;11.63;10.83;;;4.60;99.90;;;;;;5276216;27;20759;-77
2024/04/18 04:43:24;;;;;;;11.53;10.83;;;4.60;99.90;;;;;;5261415;27;20234;-77
2024/04/18 04:45:56;;;;;;;11.57;10.87;;;4.60;99.90;;;;;;5264215;27;20280;-77
2024/04/18 04:48:42;;;;;;;11.90;11.10;;;4.60;99.90;;;;;;5219255;26;20525;-77
2024/04/18 04:51:17;;;;;;;12.03;11.23;;;4.60;99.90;;;;;;5242095;27;20257;-77
2024/04/18 04:53:43;;;;;;;12.17;11.30;;;4.70;99.90;;;;;;5229451;27;20631;-77
2024/04/18 04:56:31;;;;;;;12.00;11.20;;;4.70;99.90;;;;;;5230173;27;20281;-77
2024/04/18 04:59:16;;;;;;;11.63;10.93;;;4.70;99.90;;;;;;5242715;27;20289;-78
2024/04/18 05:01:51;;;;;;;12.10;11.30;;;4.70;99.90;;;;;;5229874;27;20240;-77
2024/04/18 05:04:36;;;;;;;11.63;10.83;;;4.70;99.90;;;;;;5227421;27;20243;-77
2024/04/18 05:07:27;;;;;;;12.40;11.53;;;4.70;99.90;;;;;;5229923;27;20231;-77
2024/04/18 05:09:53;;;;;;;12.17;11.37;;;4.80;99.90;;;;;;5236039;27;20237;-77
2024/04/18 05:12:22;;;;;;;12.70;11.70;;;4.70;99.90;;;;;;5212111;27;20251;-77
2024/04/18 05:14:48;;;;;;;11.20;10.50;;;4.70;99.90;;;;;;5242959;27;20238;-78
2024/04/18 05:17:54;;;;;;;11.80;11.00;;;4.70;99.90;;;;;;5243405;26;20698;-77
2024/04/18 05:20:20;;;;;;;11.20;10.40;;;4.80;99.90;;;;;;5224952;27;20241;-77
2024/04/18 05:22:52;;;;;;;12.83;11.93;;;4.80;99.90;;;;;;5240432;27;20285;-77
2024/04/18 05:25:18;;;;;;;13.13;12.13;;;4.80;99.90;;;;;;5237018;27;20248;-76
2024/04/18 05:27:55;;;;;;;12.87;11.97;;;4.80;99.90;;;;;;5232463;27;20295;-78
2024/04/18 05:33:20;;;;;;;13.37;12.17;;;4.90;99.90;;;;;;5246291;27;20244;-77
2024/04/18 05:35:49;;;;;;;13.53;12.57;;;4.90;99.90;;;;;;5241423;27;20236;-78
2024/04/18 05:38:20;;;;;;;12.80;11.80;;;4.90;99.90;;;;;;5249464;27;20276;-78
2024/04/18 05:40:49;;;;;;;13.00;12.10;;;5.00;99.90;;;;;;5246644;27;20246;-77
2024/04/18 05:43:17;;;;;;;12.90;11.97;;;5.00;99.90;;;;;;5227643;27;20279;-78
2024/04/18 05:45:49;;;;;;;12.60;11.80;;;5.10;99.90;;;;;;5230603;27;20299;-78
2024/04/18 05:48:15;;;;;;;13.00;12.10;;;5.10;99.90;;;;;;5244342;27;20295;-79
2024/04/18 05:50:44;;;;;;;13.10;12.13;;;5.10;99.90;;;;;;5242105;27;20293;-77
2024/04/18 05:53:27;;;;;;;13.50;12.60;;;5.20;99.90;;;;;;5239787;27;20292;-77
2024/04/18 05:55:55;;;;;;;12.77;11.87;;;5.30;99.90;;;;;;5243891;27;20242;-80
2024/04/18 05:58:24;;;;;;;13.23;12.27;;;5.30;99.90;;;;;;5232358;27;20788;-79
2024/04/18 06:00:55;;;;;;;12.77;11.97;;;5.40;99.90;;;;;;5226448;27;20702;-79
2024/04/18 06:03:24;;;;;;;12.93;12.03;;;5.40;99.90;;;;;;5245856;27;20345;-79
2024/04/18 06:05:52;;;;;;;12.90;12.07;;;5.50;99.90;;;;;;5244784;27;20236;-79
2024/04/18 06:08:21;;;;;;;14.00;12.97;;;5.60;99.90;;;;;;5233369;27;20281;-80
2024/04/18 06:10:52;;;;;;;16.63;15.60;;;5.70;99.90;;;;;;5227783;27;20744;-79
2024/04/18 06:13:22;;;;;;;14.30;13.40;;;5.70;99.90;;;;;;5244388;27;20275;-78
2024/04/18 06:15:51;;;;;;;13.10;12.20;;;5.80;99.90;;;;;;5243059;27;20315;-79
2024/04/18 06:18:19;;;;;;;11.23;10.43;;;6.00;99.90;;;;;;5244870;27;20240;-79
2024/04/18 06:20:50;;;;;;;8.63;8.03;;;6.10;99.90;;;;;;5232071;27;20288;-79
2024/04/18 06:23:19;;;;;;;9.50;8.70;;;6.20;99.90;;;;;;5242906;27;20246;-80
2024/04/18 06:26:10;;;;;;;11.40;10.60;;;6.20;99.90;;;;;;5236464;27;20604;-79
2024/04/18 06:28:38;;;;;;;10.93;10.17;;;6.30;99.90;;;;;;5245628;27;20347;-79
2024/04/18 06:31:10;;;;;;;11.60;10.80;;;6.30;99.90;;;;;;5246830;27;20742;-80
2024/04/18 06:33:39;;;;;;;12.27;11.37;;;6.20;99.90;;;;;;5226341;27;20305;-79
2024/04/18 06:36:10;;;;;;;12.27;11.43;;;6.20;99.90;;;;;;5217972;27;20339;-78
2024/04/18 06:38:39;;;;;;;11.23;10.43;;;6.20;99.90;;;;;;5219387;27;20283;-78
2024/04/18 06:41:10;;;;;;;10.43;9.63;;;6.20;99.90;;;;;;5225275;27;20290;-78
2024/04/18 06:43:44;;;;;;;11.37;10.57;;;6.20;99.90;;;;;;5237419;27;20279;-79
2024/04/18 06:46:12;;;;;;;10.47;9.77;;;6.20;99.90;;;;;;5226152;27;20241;-79
2024/04/18 06:48:41;;;;;;;11.30;10.50;;;6.30;99.90;;;;;;5252014;26;20407;-78
2024/04/18 06:51:10;;;;;;;11.30;10.50;;;6.30;99.90;;;;;;5226380;27;20358;-78
2024/04/18 06:53:38;;;;;;;10.93;10.03;;;6.40;99.90;;;;;;5242959;27;20242;-78
2024/04/18 06:56:09;;;;;;;8.50;7.90;;;6.30;99.90;;;;;;5230157;27;20241;-78
2024/04/18 06:58:38;;;;;;;8.53;7.93;;;6.20;99.90;;;;;;5240977;27;20250;-79
2024/04/18 07:01:07;;;;;;;8.37;7.67;;;6.20;99.90;;;;;;5243061;27;20297;-78
2024/04/18 07:03:55;;;;;;;9.67;8.87;;;6.20;99.90;;;;;;5229061;27;22476;-79
2024/04/18 07:06:30;;;;;;;8.90;8.20;;;6.20;99.90;;;;;;5230682;27;20245;-78
2024/04/18 07:09:05;;;;;;;8.77;8.07;;;6.30;99.90;;;;;;5258712;27;20643;-79
2024/04/18 07:11:48;;;;;;;9.43;8.73;;;6.20;99.90;;;;;;5216675;27;20621;-78
2024/04/18 07:14:17;;;;;;;9.63;8.93;;;6.20;99.90;;;;;;5243587;27;20237;-78
2024/04/18 07:17:05;;;;;;;9.77;9.07;;;6.20;99.90;;;;;;5216276;27;20370;-78
2024/04/18 07:19:34;;;;;;;10.50;9.70;;;6.30;99.90;;;;;;5243134;27;20237;-78
2024/04/18 07:22:02;;;;;;;10.97;10.17;;;6.40;99.90;;;;;;5224099;27;20235;-80
2024/04/18 07:24:51;;;;;;;9.80;9.10;;;6.50;99.90;;;;;;5240717;27;20241;-78
2024/04/18 07:27:22;;;;;;;11.67;10.87;;;6.70;99.90;;;;;;5247954;27;20315;-78
2024/04/18 07:29:50;;;;;;;8.70;8.00;;;6.70;99.90;;;;;;5223486;27;20359;-78
2024/04/18 07:32:18;;;;;;;6.63;6.03;;;6.90;99.90;;;;;;5235257;27;20239;-77
2024/04/18 07:34:47;;;;;;;10.10;9.30;;;7.00;99.90;;;;;;5239801;27;20613;-77
2024/04/18 07:37:13;;;;;;;11.30;10.50;;;7.00;99.90;;;;;;5233388;27;20243;-81
2024/04/18 07:39:41;;;;;;;7.50;6.90;;;7.20;99.90;;;;;;5224940;27;20301;-77
2024/04/18 07:42:11;;;;;;;10.50;9.80;;;7.30;99.90;;;;;;5253937;27;20245;-78
2024/04/18 07:44:42;;;;;;;8.77;8.07;;;7.30;99.90;;;;;;5243924;27;20288;-79
2024/04/18 07:47:11;;;;;;;9.97;9.27;;;7.40;99.90;;;;;;5221307;27;20321;-77
2024/04/18 07:49:40;;;;;;;8.97;8.33;;;7.40;99.90;;;;;;5254945;27;20337;-77
2024/04/18 07:52:13;;;;;;;8.00;7.40;;;7.40;99.90;;;;;;5231251;27;20238;-77
2024/04/18 07:54:41;;;;;;;6.10;5.23;;;7.30;99.90;;;;;;5230581;27;20624;-77
2024/04/18 07:57:10;;;;;;;9.17;5.10;;;7.20;99.90;;;;;;5230704;27;20281;-77
2024/04/18 07:59:38;;;;;;;5.60;5.10;;;7.10;99.90;;;;;;5243927;27;20365;-78
2024/04/18 08:02:09;;;;;;;9.73;9.03;;;7.00;99.90;;;;;;5243157;27;20238;-76
2024/04/18 08:04:38;;;;;;;10.10;9.30;;;7.00;99.90;;;;;;5244573;27;20362;-76
2024/04/18 08:07:07;;;;;;;10.70;9.90;;;7.00;99.90;;;;;;5235071;27;20247;-77
2024/04/18 08:09:35;;;;;;;10.27;9.57;;;7.00;99.90;;;;;;5229754;27;20294;-78
2024/04/18 08:12:05;;;;;;;10.63;9.93;;;7.20;99.90;;;;;;5225594;27;20285;-77
2024/04/18 08:14:34;;;;;;;10.73;10.03;;;7.20;99.90;;;;;;5226666;27;20246;-76
2024/04/18 08:17:02;;;;;;;11.77;10.97;;;7.20;99.90;;;;;;5238194;27;20288;-77
2024/04/18 08:19:34;;;;;;;10.80;10.10;;;7.30;99.90;;;;;;5245454;27;20233;-76
2024/04/18 08:22:03;;;;;;;9.43;8.73;;;7.60;99.90;;;;;;5222772;27;20291;-77
2024/04/18 08:24:33;;;;;;;10.03;9.33;;;7.80;99.90;;;;;;5232096;27;20239;-76
2024/04/18 08:27:08;;;;;;;7.37;6.77;;;7.90;99.90;;;;;;5241515;27;20284;-77
2024/04/18 08:29:37;;;;;;;9.83;9.10;;;8.10;99.90;;;;;;5226444;27;20239;-77
2024/04/18 08:32:06;;;;;;;9.43;8.73;;;8.30;99.90;;;;;;5233647;27;20241;-78
2024/04/18 08:34:37;;;;;;;8.40;7.80;;;8.40;99.90;;;;;;5235811;27;20235;-77
2024/04/18 08:37:05;;;;;;;9.80;9.10;;;8.60;99.90;;;;;;5249485;27;20243;-76
2024/04/18 08:39:34;;;;;;;8.40;7.70;;;8.80;99.90;;;;;;5237004;27;20281;-76
2024/04/18 08:42:04;;;;;;;10.00;9.30;;;8.90;99.90;;;;;;5228544;27;21006;-77
2024/04/18 08:44:32;;;;;;;9.03;8.33;;;8.90;99.90;;;;;;5228391;27;20242;-76
2024/04/18 08:47:03;;;;;;;7.07;6.47;;;8.90;99.90;;;;;;5243879;27;20242;-77
2024/04/18 08:49:34;;;;;;;8.10;7.50;;;8.90;99.90;;;;;;5219849;27;20249;-76
2024/04/18 08:52:08;;;;;;;6.70;6.20;;;8.70;99.90;;;;;;5243781;27;20235;-76
2024/04/18 08:54:36;;;;;;;7.60;7.10;;;8.90;99.90;;;;;;5234896;27;20241;-76
2024/04/18 08:57:10;;;;;;;9.40;8.80;;;9.10;99.90;;;;;;5239948;27;20806;-77
2024/04/18 08:59:38;;;;;;;9.27;8.63;;;9.00;99.90;;;;;;5247633;27;20240;-78
2024/04/18 09:02:06;;;;;;;9.20;7.93;;;9.00;99.90;;;;;;5231725;27;20249;-76
2024/04/18 09:04:35;;;;;;;6.83;6.33;;;9.10;99.90;;;;;;5226406;27;20347;-76
2024/04/18 09:07:06;;;;;;;6.40;6.00;;;9.10;99.90;;;;;;5229279;27;20756;-76
2024/04/18 09:09:34;;;;;;;7.43;6.93;;;8.80;99.90;;;;;;5257502;27;20359;-77
2024/04/18 09:12:04;;;;;;;7.83;7.33;;;8.30;99.90;;;;;;5246661;27;20277;-77
2024/04/18 09:14:33;;;;;;;8.67;8.07;;;7.70;99.90;;;;;;5258748;27;20305;-77
2024/04/18 09:17:02;;;;;;;7.17;6.73;;;7.30;99.90;;;;;;5227966;27;20290;-77
2024/04/18 09:19:30;;;;;;;2.57;2.43;;;6.80;99.90;;;;;;5241372;27;20247;-77
2024/04/18 09:22:02;;;;;;;9.63;8.73;;;6.30;99.90;;;;;;5244474;27;20675;-77
2024/04/18 09:24:33;;;;;;;10.60;9.70;;;5.80;99.90;;;;;;5245053;27;20630;-77
2024/04/18 09:27:01;;;;;;;11.10;10.40;;;5.40;99.90;;;;;;5239610;27;20751;-77
2024/04/18 09:29:29;;;;;;;10.90;10.00;;;5.20;99.90;;;;;;5243107;27;20272;-77
2024/04/18 09:32:01;;;;;;;11.30;10.50;;;5.10;99.90;;;;;;5242273;27;20280;-77
2024/04/18 09:34:32;;;;;;;10.67;9.97;;;5.10;99.90;;;;;;5234202;27;20247;-77
2024/04/18 09:37:06;;;;;;;10.70;9.93;;;5.10;99.90;;;;;;5232618;27;20744;-77
2024/04/18 09:39:39;;;;;;;11.07;10.27;;;5.20;99.90;;;;;;5244137;27;20366;-77
2024/04/18 09:42:14;;;;;;;11.07;10.27;;;5.50;99.90;;;;;;5227748;27;20355;-77
2024/04/18 09:44:45;;;;;;;11.67;10.87;;;5.70;99.90;;;;;;5230607;27;20352;-77
2024/04/18 09:47:16;;;;;;;11.03;10.23;;;5.90;99.90;;;;;;5242524;27;20745;-77
2024/04/18 09:49:45;;;;;;;12.00;11.10;;;6.20;99.90;;;;;;5232506;27;20699;-77
2024/04/18 09:52:15;;;;;;;11.63;10.90;;;6.70;99.90;;;;;;5242641;27;20242;-77
2024/04/18 09:54:47;;;;;;;9.27;8.57;;;7.40;99.90;;;;;;5214250;27;20247;-77
2024/04/18 09:57:17;;;;;;;10.37;9.67;;;8.00;99.90;;;;;;5242361;27;20277;-77
2024/04/18 09:59:48;;;;;;;6.67;6.07;;;8.40;99.90;;;;;;5243666;27;20241;-77
2024/04/18 10:02:16;;;;;;;6.57;6.07;;;8.80;99.90;;;;;;5240063;27;20325;-76
2024/04/18 10:04:45;;;;;;;7.97;7.37;;;9.60;99.90;;;;;;5245721;27;20281;-78
2024/04/18 10:07:16;;;;;;;9.30;8.70;;;10.00;99.90;;;;;;5244553;27;20246;-76
2024/04/18 10:09:50;;;;;;;5.67;5.17;;;10.10;99.90;;;;;;5239194;27;20294;-76
2024/04/18 10:12:21;;;;;;;4.80;4.40;;;9.90;99.90;;;;;;5220789;27;20790;-77
2024/04/18 10:14:51;;;;;;;10.10;9.40;;;9.50;99.90;;;;;;5235108;27;20244;-77
2024/04/18 10:17:26;;;;;;;9.27;8.57;;;9.20;99.90;;;;;;5227034;27;20253;-76
2024/04/18 10:19:55;;;;;;;10.50;9.70;;;8.90;99.90;;;;;;5230882;27;20239;-76
2024/04/18 10:22:28;;;;;;;9.53;8.80;;;8.70;99.90;;;;;;5232193;27;20277;-76
2024/04/18 10:24:59;;;;;;;6.93;6.00;;;8.40;99.90;;;;;;5245147;27;20234;-78
2024/04/18 10:27:28;;;;;;;6.47;5.87;;;8.30;99.90;;;;;;5237298;27;20239;-76
2024/04/18 10:29:58;;;;;;;6.47;5.87;;;8.10;99.90;;;;;;5228294;27;20314;-76
2024/04/18 10:32:30;;;;;;;7.47;6.20;;;8.20;99.90;;;;;;5232371;27;20235;-76
2024/04/18 10:35:02;;;;;;;5.83;5.33;;;8.60;99.90;;;;;;5228928;27;20247;-76
2024/04/18 10:37:28;;;;;;;6.73;6.13;;;9.00;99.90;;;;;;5232363;27;20790;-76
2024/04/18 10:39:57;;;;;;;6.57;5.87;;;9.50;99.90;;;;;;5229025;27;20250;-77
2024/04/18 10:42:29;;;;;;;7.20;6.60;;;9.70;99.90;;;;;;5226298;27;20742;-76
2024/04/18 10:44:58;;;;;;;5.00;4.50;;;9.90;99.90;;;;;;5231488;27;20240;-77
2024/04/18 10:47:24;;;;;;;6.07;4.73;;;10.10;99.90;;;;;;5244041;27;20321;-79
2024/04/18 10:49:52;;;;;;;7.73;7.13;;;10.60;99.90;;;;;;5234695;27;20244;-81
2024/04/18 10:52:21;;;;;;;6.13;5.63;;;11.20;99.90;;;;;;5234761;27;20293;-80
2024/04/18 10:54:49;;;;;;;7.30;6.80;;;11.40;99.90;;;;;;5222907;27;20751;-80
2024/04/18 10:57:18;;;;;;;7.60;7.07;;;11.50;99.90;;;;;;5237023;27;20863;-80
2024/04/18 10:59:49;;;;;;;8.17;7.50;;;11.60;99.90;;;;;;5239179;27;20270;-80
2024/04/18 11:02:18;;;;;;;6.20;5.60;;;11.50;99.90;;;;;;5226120;27;20579;-79
2024/04/18 11:04:47;;;;;;;5.50;5.00;;;11.80;99.90;;;;;;5221766;27;20245;-80
2024/04/18 11:07:15;;;;;;;6.20;5.70;;;12.10;99.90;;;;;;5229492;27;20246;-79
2024/04/18 11:09:44;;;;;;;4.77;4.37;;;12.40;99.90;;;;;;5236564;27;20277;-78
2024/04/18 11:12:14;;;;;;;7.97;7.37;;;12.60;99.90;;;;;;5243621;27;20236;-81
2024/04/18 11:14:43;;;;;;;6.70;6.20;;;12.80;99.90;;;;;;5225532;27;20358;-76
2024/04/18 11:17:14;;;;;;;6.10;5.60;;;12.60;99.90;;;;;;5224194;27;20241;-80
2024/04/18 11:19:42;;;;;;;7.07;6.47;;;12.30;99.90;;;;;;5231894;27;20292;-81
2024/04/18 11:22:11;;;;;;;6.50;6.00;;;11.90;99.90;;;;;;5233996;27;20643;-81
2024/04/18 11:24:39;;;;;;;8.90;8.20;;;11.70;99.90;;;;;;5226356;27;20240;-80
2024/04/18 11:27:08;;;;;;;3.80;3.50;;;11.30;99.90;;;;;;5238376;27;20250;-81
2024/04/18 11:29:37;;;;;;;6.40;5.90;;;10.60;99.90;;;;;;5215499;27;20747;-77
2024/04/18 11:32:08;;;;;;;4.47;4.17;;;9.90;99.90;;;;;;5241085;27;20586;-82
2024/04/18 11:34:42;;;;;;;4.70;4.40;;;9.60;99.90;;;;;;5245178;27;20245;-84
2024/04/18 11:37:10;;;;;;;4.00;3.70;;;9.40;99.90;;;;;;5239809;27;20261;-82
2024/04/18 11:39:41;;;;;;;3.13;2.83;;;9.30;99.90;;;;;;5246889;27;20869;-85
2024/04/18 11:42:09;;;;;;;3.47;2.70;;;9.30;99.90;;;;;;5221568;27;20303;-82
2024/04/18 11:44:38;;;;;;;4.23;4.03;;;9.20;99.90;;;;;;5239499;27;20245;-83
2024/04/18 11:47:07;;;;;;;4.90;4.50;;;9.00;99.90;;;;;;5240759;27;20308;-83
2024/04/18 11:49:35;;;;;;;3.23;3.03;;;8.60;99.90;;;;;;5244825;27;20243;-82
2024/04/18 11:52:07;;;;;;;3.30;3.10;;;8.40;99.90;;;;;;5231286;27;20274;-83
2024/04/18 11:54:33;;;;;;;4.47;4.07;;;8.40;99.90;;;;;;5226456;27;20245;-82
2024/04/18 11:57:01;;;;;;;3.70;3.40;;;8.40;99.90;;;;;;5258395;26;20283;-82
2024/04/18 11:59:37;;;;;;;3.23;2.93;;;8.50;99.90;;;;;;5237623;27;20279;-82
2024/04/18 12:02:06;;;;;;;3.00;2.80;;;8.70;99.90;;;;;;5243854;27;20629;-82
2024/04/18 12:04:52;;;;;;;2.90;2.70;;;8.80;99.90;;;;;;5227563;27;20633;-82
2024/04/18 12:07:23;;;;;;;3.50;3.20;;;8.90;99.90;;;;;;5225155;27;20243;-80
2024/04/18 12:09:54;;;;;;;4.30;4.00;;;8.80;99.90;;;;;;5224875;27;20239;-83
2024/04/18 12:12:24;;;;;;;8.13;7.60;;;8.60;99.90;;;;;;5214208;27;20243;-80
2024/04/18 12:14:54;;;;;;;7.90;7.40;;;8.50;99.90;;;;;;5243376;27;20352;-82
2024/04/18 12:17:30;;;;;;;7.60;7.10;;;8.60;99.90;;;;;;5241695;27;20300;-81
2024/04/18 12:20:18;;;;;;;2.87;2.67;;;8.90;99.90;;;;;;5236670;27;20344;-81
2024/04/18 12:22:49;;;;;;;2.70;2.50;;;9.30;99.90;;;;;;5236963;27;20352;-82
2024/04/18 12:25:19;;;;;;;3.97;3.60;;;9.70;99.90;;;;;;5220139;27;20244;-81
2024/04/18 12:27:48;;;;;;;3.57;3.27;;;9.90;99.90;;;;;;5237918;27;20286;-81
2024/04/18 12:30:32;;;;;;;4.30;4.00;;;10.20;99.90;;;;;;5225193;27;20248;-81
2024/04/18 12:33:19;;;;;;;4.90;4.60;;;10.30;99.90;;;;;;5220698;27;20276;-81
2024/04/18 12:35:47;;;;;;;4.00;3.60;;;10.70;99.90;;;;;;5235623;27;20537;-82
2024/04/18 12:38:18;;;;;;;6.80;6.30;;;11.10;99.90;;;;;;5225902;27;20238;-82
2024/04/18 12:40:47;;;;;;;3.80;3.50;;;11.40;99.90;;;;;;5236600;27;20234;-81
2024/04/18 12:43:18;;;;;;;4.60;4.23;;;11.60;99.90;;;;;;5233994;27;20238;-83
2024/04/18 12:45:55;;;;;;;4.63;3.87;;;11.40;99.90;;;;;;5248870;27;20281;-83
2024/04/18 12:48:44;;;;;;;3.20;3.00;;;11.00;99.90;;;;;;5221946;27;20246;-84
2024/04/18 12:51:12;;;;;;;6.77;6.27;;;10.70;99.90;;;;;;5226254;27;20291;-83
2024/04/18 12:53:46;;;;;;;4.13;3.83;;;10.60;99.90;;;;;;5233507;27;20300;-83
2024/04/18 12:56:12;;;;;;;9.03;8.53;;;10.40;99.90;;;;;;5222467;27;20766;-82
2024/04/18 12:58:43;;;;;;;5.80;5.40;;;10.00;99.90;;;;;;5222906;27;20244;-84
2024/04/18 13:01:13;;;;;;;6.40;6.00;;;9.40;99.90;;;;;;5245827;27;20350;-82
2024/04/18 13:03:41;;;;;;;11.30;10.43;;;9.10;99.90;;;;;;5226878;27;20240;-82
2024/04/18 13:06:29;;;;;;;8.20;7.70;;;8.60;99.90;;;;;;5241582;27;20678;-79
2024/04/18 13:09:00;;;;;;;8.20;7.70;;;8.00;99.90;;;;;;5220778;27;20364;-80
2024/04/18 13:11:44;;;;;;;9.00;8.40;;;7.60;99.90;;;;;;5216649;27;20285;-79
2024/04/18 13:14:13;;;;;;;7.90;7.47;;;7.50;99.90;;;;;;5242532;27;20294;-78
2024/04/18 13:16:42;;;;;;;8.07;7.57;;;7.50;99.90;;;;;;5218742;27;20285;-78
2024/04/18 13:19:10;;;;;;;8.70;8.10;;;7.60;99.90;;;;;;5226994;27;20611;-79
2024/04/18 13:21:39;;;;;;;8.50;7.90;;;7.70;99.90;;;;;;5239834;27;20234;-78